Time;durP1;ratioP1;P1;durP2;ratioP2;P2;SDS_P1;SDS_P2;PMS_P1;PMS_P2;Temp;Humidity;BMP_temperature;BMP_pressure;BME280_temperature;BME280_humidity;BME280_pressure;Samples;Min_cycle;Max_cycle;Signal;HPM_P1;HPM_P2
2022/07/20 00:00:05;;;;;;;13.13;4.70;;;28.30;49.10;;;29.42;33.06;100472.47;5015588;28;20703;-69
2022/07/20 00:02:32;;;;;;;6.60;4.57;;;28.20;49.60;;;29.30;33.55;100469.81;5028152;28;20678;-70
2022/07/20 00:04:59;;;;;;;7.03;4.90;;;28.10;50.10;;;29.26;34.24;100470.53;5028092;28;20727;-70
2022/07/20 00:07:26;;;;;;;14.20;5.30;;;28.00;51.10;;;29.10;34.50;100472.84;5028884;28;21149;-70
2022/07/20 00:12:39;;;;;;;12.10;4.87;;;27.90;51.10;;;28.93;34.75;100471.91;5029682;28;21184;-70
2022/07/20 00:15:07;;;;;;;13.10;5.30;;;27.70;51.40;;;28.86;35.26;100465.81;5026866;28;21075;-70
2022/07/20 00:17:34;;;;;;;7.20;5.03;;;27.70;51.70;;;28.68;35.58;100463.25;5028573;28;20633;-70
2022/07/20 00:20:02;;;;;;;6.03;5.17;;;27.50;51.80;;;28.60;35.69;100468.16;5028586;28;20760;-68
2022/07/20 00:22:29;;;;;;;7.63;4.83;;;27.40;52.20;;;28.66;35.66;100472.59;5028907;28;20620;-70
2022/07/20 00:24:55;;;;;;;5.70;4.67;;;27.40;52.10;;;28.46;35.86;100459.44;5027861;28;21175;-73
2022/07/20 00:27:22;;;;;;;6.30;4.70;;;27.30;52.20;;;28.37;36.28;100464.34;5028259;28;20672;-69
2022/07/20 00:29:49;;;;;;;10.03;5.83;;;27.20;52.30;;;28.28;36.15;100464.91;5028118;28;20637;-69
2022/07/20 00:32:16;;;;;;;9.10;5.30;;;27.10;52.60;;;28.30;36.15;100458.25;5029693;28;20663;-70
2022/07/20 00:34:43;;;;;;;8.77;5.90;;;27.10;52.70;;;28.17;37.01;100463.00;5030334;28;20644;-69
2022/07/20 00:37:10;;;;;;;6.27;4.97;;;27.00;53.00;;;28.05;36.91;100459.44;5030140;28;20643;-70
2022/07/20 00:39:37;;;;;;;8.33;4.70;;;27.00;53.20;;;28.09;37.02;100460.66;5032050;28;20719;-70
2022/07/20 00:42:04;;;;;;;8.40;4.93;;;26.90;53.30;;;28.03;37.27;100457.00;5032242;28;20625;-69
2022/07/20 00:44:31;;;;;;;6.97;5.10;;;26.90;53.50;;;28.02;37.01;100454.56;5032915;28;20613;-70
2022/07/20 00:46:58;;;;;;;6.20;4.57;;;26.90;53.60;;;27.94;37.43;100462.91;5030431;28;20641;-69
2022/07/20 00:49:25;;;;;;;15.73;5.27;;;26.80;53.70;;;27.89;37.63;100457.38;5031378;28;20652;-69
2022/07/20 00:51:53;;;;;;;6.70;5.00;;;26.80;53.70;;;27.78;37.74;100450.09;5030475;28;20642;-70
2022/07/20 00:54:20;;;;;;;7.73;4.63;;;26.70;53.90;;;27.78;37.94;100455.47;5032053;28;20991;-68
2022/07/20 00:56:47;;;;;;;5.47;4.40;;;26.70;54.10;;;27.79;37.75;100449.06;5029860;28;20617;-70
2022/07/20 00:59:14;;;;;;;6.57;4.97;;;26.60;54.70;;;27.74;37.89;100455.09;5032848;28;20660;-70
2022/07/20 01:01:41;;;;;;;5.83;5.10;;;26.60;54.20;;;27.67;38.15;100449.81;5031451;28;20660;-70
2022/07/20 01:04:08;;;;;;;10.93;5.20;;;26.50;54.40;;;27.63;38.37;100454.00;5031399;28;20716;-70
2022/07/20 01:06:36;;;;;;;6.60;4.50;;;26.50;54.70;;;27.68;38.10;100454.13;5028475;28;20639;-70
2022/07/20 01:09:03;;;;;;;6.43;4.67;;;26.50;54.60;;;27.63;38.10;100453.19;5011871;28;21236;-70
2022/07/20 01:11:33;;;;;;;6.47;4.73;;;26.50;54.70;;;27.58;38.51;100451.16;5030320;28;21038;-69
2022/07/20 01:14:02;;;;;;;10.50;5.27;;;26.40;54.70;;;27.49;38.76;100449.84;5014432;28;20961;-70
2022/07/20 01:16:29;;;;;;;9.87;4.67;;;26.40;55.60;;;27.46;38.88;100447.63;5032004;28;21030;-69
2022/07/20 01:18:56;;;;;;;11.03;5.37;;;26.30;55.20;;;27.23;39.31;100442.09;5033063;28;20657;-70
2022/07/20 01:21:23;;;;;;;7.03;4.77;;;26.20;55.40;;;27.28;39.24;100439.53;5031407;28;20663;-69
2022/07/20 01:23:50;;;;;;;5.90;4.40;;;26.20;55.50;;;27.29;39.33;100445.72;5030687;28;20739;-70
2022/07/20 01:26:19;;;;;;;4.67;4.20;;;26.10;55.50;;;27.25;39.38;100439.19;5013199;28;20629;-68
2022/07/20 01:28:47;;;;;;;6.60;4.53;;;26.10;55.70;;;27.25;39.58;100439.19;5030713;28;20631;-69
2022/07/20 01:31:14;;;;;;;9.57;4.67;;;26.10;55.90;;;27.18;39.50;100427.72;5032162;28;20687;-69
2022/07/20 01:33:41;;;;;;;9.33;4.80;;;26.10;55.90;;;27.18;39.84;100439.25;5031699;28;20620;-70
2022/07/20 01:36:09;;;;;;;7.37;4.73;;;26.10;56.10;;;27.11;39.84;100441.16;5028965;28;21247;-69
2022/07/20 01:38:36;;;;;;;5.53;4.73;;;26.00;56.20;;;27.01;40.29;100438.19;5030216;28;20724;-70
2022/07/20 01:41:03;;;;;;;6.43;5.37;;;25.90;56.30;;;27.01;40.13;100440.88;5029438;28;20661;-70
2022/07/20 01:43:30;;;;;;;5.40;4.57;;;25.90;56.60;;;27.07;39.75;100447.22;5032039;28;20617;-70
2022/07/20 01:45:57;;;;;;;5.17;4.70;;;25.90;56.60;;;27.02;40.26;100437.16;5032011;28;20623;-69
2022/07/20 01:48:24;;;;;;;8.00;4.93;;;25.90;56.60;;;26.95;40.46;100439.09;5029549;28;20644;-69
2022/07/20 01:50:50;;;;;;;9.73;4.87;;;25.80;56.70;;;26.92;40.80;100440.34;5012615;28;20640;-70
2022/07/20 01:53:17;;;;;;;8.93;5.23;;;25.80;57.00;;;26.92;40.66;100440.34;5030954;28;20830;-70
2022/07/20 01:55:44;;;;;;;7.73;5.13;;;25.70;57.00;;;26.90;40.95;100441.59;5029706;28;20640;-69
2022/07/20 01:58:11;;;;;;;7.83;5.10;;;25.70;57.20;;;26.83;41.14;100443.53;5030372;28;20635;-69
2022/07/20 02:00:38;;;;;;;9.57;5.00;;;25.70;57.50;;;26.67;41.59;100447.53;5028686;28;20657;-69
2022/07/20 02:03:05;;;;;;;5.60;4.80;;;25.70;57.90;;;26.70;41.50;100451.66;5028717;28;21191;-70
2022/07/20 02:05:32;;;;;;;5.03;4.27;;;25.60;57.80;;;26.76;41.08;100446.25;5027536;28;20635;-69
2022/07/20 02:07:59;;;;;;;7.73;4.60;;;25.60;57.80;;;26.70;41.40;100449.78;5028096;28;21409;-69
2022/07/20 02:10:26;;;;;;;5.70;5.20;;;25.60;57.80;;;26.69;41.42;100450.81;5029031;28;21282;-70
2022/07/20 02:12:53;;;;;;;6.53;5.47;;;25.60;58.00;;;26.69;41.95;100448.13;5030369;28;20605;-70
2022/07/20 02:18:11;;;;;;;6.50;5.30;;;25.50;59.70;;;26.67;43.46;100454.75;5031190;28;20627;-69
2022/07/20 02:20:40;;;;;;;6.00;4.70;;;25.50;60.00;;;26.62;43.19;100465.31;5037875;28;20672;-69
2022/07/20 02:23:11;;;;;;;5.20;4.47;;;25.40;59.80;;;26.56;42.76;100460.81;5030848;28;20659;-69
2022/07/20 02:25:38;;;;;;;12.30;5.07;;;25.40;59.80;;;26.55;43.03;100459.19;5028710;28;21211;-69
2022/07/20 02:28:07;;;;;;;7.87;5.00;;;25.40;59.70;;;26.42;43.52;100460.09;5029326;28;20629;-69
2022/07/20 02:30:35;;;;;;;8.03;4.93;;;25.30;60.40;;;26.38;43.72;100460.75;5026018;28;20616;-68
2022/07/20 02:33:03;;;;;;;9.73;5.13;;;25.20;60.40;;;26.35;43.18;100455.81;5010405;28;20620;-68
2022/07/20 02:35:30;;;;;;;9.90;5.17;;;25.20;60.10;;;26.35;43.42;100463.84;5017031;28;21016;-67
2022/07/20 02:37:58;;;;;;;9.10;5.13;;;25.20;60.20;;;26.34;43.49;100467.56;5027752;28;20644;-68
2022/07/20 02:40:26;;;;;;;10.10;4.97;;;25.20;60.10;;;26.26;44.66;100475.84;5028542;28;20707;-70
2022/07/20 02:42:53;;;;;;;5.03;4.57;;;25.20;61.40;;;26.29;46.48;100462.03;5031157;28;20636;-71
2022/07/20 02:45:21;;;;;;;5.83;4.40;;;25.10;63.50;;;26.21;46.67;100463.13;5030272;28;20621;-70
2022/07/20 02:47:49;;;;;;;13.43;4.60;;;25.10;63.90;;;26.20;47.12;100466.81;5027320;28;20690;-70
2022/07/20 02:50:16;;;;;;;5.27;4.73;;;25.00;64.40;;;26.20;49.71;100457.97;5011582;28;21228;-70
2022/07/20 02:52:44;;;;;;;15.30;5.13;;;25.00;67.70;;;26.17;50.57;100465.41;5029291;28;20639;-70
2022/07/20 02:55:12;;;;;;;8.50;4.87;;;25.00;68.20;;;25.90;51.07;100450.50;4995429;28;20612;-69
2022/07/20 02:57:39;;;;;;;7.83;5.10;;;24.90;68.40;;;26.03;50.63;100457.66;5029138;28;20640;-69
2022/07/20 03:00:10;;;;;;;6.00;5.17;;;24.90;68.60;;;25.93;50.48;100451.94;5030627;28;20661;-69
2022/07/20 03:02:37;;;;;;;4.60;4.20;;;24.80;68.90;;;25.94;50.71;100456.25;5029772;28;21029;-70
2022/07/20 03:05:05;;;;;;;8.53;4.57;;;24.80;68.80;;;25.88;50.07;100459.78;5028034;28;20633;-67
2022/07/20 03:07:32;;;;;;;7.23;4.70;;;24.80;69.30;;;25.90;49.76;100463.06;5028345;28;20629;-67
2022/07/20 03:09:59;;;;;;;5.57;4.93;;;24.80;68.30;;;26.01;47.49;100455.19;5011799;28;21200;-67
2022/07/20 03:12:26;;;;;;;4.83;4.43;;;24.80;66.30;;;25.99;47.29;100462.59;5012304;28;20620;-70
2022/07/20 03:14:53;;;;;;;10.63;4.40;;;24.80;66.20;;;25.98;47.39;100462.84;5029141;28;20660;-69
2022/07/20 03:17:21;;;;;;;5.33;4.83;;;24.80;65.80;;;25.93;47.51;100466.13;5028793;28;20756;-69
2022/07/20 03:19:48;;;;;;;7.97;4.77;;;24.80;65.70;;;26.00;46.81;100461.56;4958605;28;20682;-66
2022/07/20 03:22:15;;;;;;;5.80;4.43;;;24.80;64.90;;;26.00;46.96;100482.94;5027541;28;20759;-67
2022/07/20 03:24:42;;;;;;;5.67;4.53;;;24.80;65.10;;;25.86;47.65;100470.69;5030322;28;20723;-66
2022/07/20 03:27:09;;;;;;;7.10;4.53;;;24.80;65.60;;;25.98;46.74;100474.31;5030161;28;20707;-64
2022/07/20 03:29:37;;;;;;;5.87;4.23;;;24.80;65.20;;;26.01;46.26;100468.56;5030982;28;20651;-67
2022/07/20 03:32:04;;;;;;;8.37;4.80;;;24.90;65.00;;;25.88;46.35;100476.66;5030395;28;20628;-68
2022/07/20 03:34:32;;;;;;;4.77;4.33;;;24.80;64.60;;;25.94;46.36;100467.75;5028164;28;20609;-65
2022/07/20 03:36:59;;;;;;;4.93;4.47;;;24.80;64.50;;;26.00;46.33;100482.16;5030009;28;20612;-66
2022/07/20 03:39:26;;;;;;;6.03;5.40;;;24.80;64.60;;;26.01;46.07;100481.09;5028669;28;21027;-66
2022/07/20 03:41:53;;;;;;;5.93;4.60;;;24.80;64.70;;;25.97;46.01;100480.72;5028284;28;20656;-67
2022/07/20 03:44:20;;;;;;;4.43;4.13;;;24.80;64.60;;;25.98;45.51;100484.22;5028905;28;21054;-67
2022/07/20 03:46:50;;;;;;;6.27;4.20;;;24.80;64.10;;;25.96;45.82;100492.44;5025653;28;20633;-66
2022/07/20 03:49:17;;;;;;;6.07;4.50;;;24.80;64.10;;;25.88;45.71;100486.50;5027488;28;20690;-67
2022/07/20 03:51:44;;;;;;;5.20;4.80;;;24.80;63.90;;;26.01;45.14;100489.94;5033474;28;20632;-66
2022/07/20 03:54:11;;;;;;;7.37;4.50;;;24.80;63.60;;;26.03;45.13;100490.56;5049427;28;21061;-64
2022/07/20 03:56:40;;;;;;;5.20;4.70;;;24.80;63.80;;;26.03;46.30;100490.56;5049979;28;20628;-67
2022/07/20 03:59:13;;;;;;;9.37;4.57;;;24.80;65.10;;;25.95;46.39;100495.31;5049439;28;20727;-66
2022/07/20 04:01:45;;;;;;;5.43;4.23;;;24.80;65.40;;;25.77;46.88;100485.31;5045041;28;20742;-66
2022/07/20 04:04:12;;;;;;;5.57;4.30;;;24.70;65.40;;;25.78;47.03;100484.31;5029368;28;20624;-67
2022/07/20 04:06:39;;;;;;;6.00;4.70;;;24.70;65.40;;;25.84;45.71;100486.13;5029412;28;20895;-69
2022/07/20 04:09:06;;;;;;;7.50;4.57;;;24.70;63.80;;;25.97;45.73;100495.94;5032983;28;20656;-66
2022/07/20 04:11:33;;;;;;;6.10;5.20;;;24.80;64.50;;;26.12;45.32;100493.81;5033433;28;20724;-67
2022/07/20 04:14:00;;;;;;;9.47;4.60;;;24.90;63.80;;;26.27;44.48;100494.34;5034758;28;20719;-66
2022/07/20 04:16:29;;;;;;;9.00;4.90;;;25.00;63.30;;;26.41;43.56;100495.06;5032012;28;21049;-68
2022/07/20 04:18:56;;;;;;;5.77;4.40;;;25.10;62.30;;;26.58;43.41;100491.66;5027205;28;20706;-67
2022/07/20 04:21:23;;;;;;;6.83;4.37;;;25.30;62.10;;;26.63;43.49;100499.03;5031515;28;20692;-68
2022/07/20 04:23:50;;;;;;;6.17;4.40;;;25.40;62.60;;;26.67;43.39;100495.72;5032059;28;21063;-66
2022/07/20 04:26:17;;;;;;;7.00;5.10;;;25.40;62.10;;;26.65;43.46;100500.47;5032533;28;20719;-67
2022/07/20 04:28:44;;;;;;;6.33;4.77;;;25.50;61.60;;;26.73;42.89;100496.72;5033635;28;20641;-65
2022/07/20 04:31:11;;;;;;;5.00;4.50;;;25.60;61.10;;;26.83;42.74;100489.84;5032667;28;20792;-65
2022/07/20 04:33:38;;;;;;;7.93;4.50;;;25.70;61.40;;;26.81;42.26;100496.47;5032473;28;20616;-63
2022/07/20 04:36:05;;;;;;;5.40;4.90;;;25.70;60.90;;;26.87;42.84;100498.28;5028287;28;21263;-65
2022/07/20 04:38:32;;;;;;;5.20;4.20;;;25.70;60.90;;;27.08;41.93;100497.03;5032880;28;20752;-66
2022/07/20 04:40:59;;;;;;;5.97;4.60;;;25.90;60.30;;;27.27;41.17;100507.56;5031618;28;20679;-65
2022/07/20 04:43:26;;;;;;;6.20;5.10;;;26.10;59.70;;;27.46;40.40;100506.56;5031695;28;20668;-64
2022/07/20 04:45:53;;;;;;;7.50;4.83;;;26.20;59.10;;;27.70;40.13;100502.19;5032351;28;21254;-65
2022/07/20 04:48:24;;;;;;;7.00;4.20;;;26.40;58.60;;;28.01;39.52;100493.97;5029411;28;20728;-67
2022/07/20 04:50:50;;;;;;;6.80;5.20;;;26.60;58.40;;;28.30;40.24;100498.50;5031871;28;20649;-66
2022/07/20 04:53:17;;;;;;;5.70;4.77;;;26.90;59.10;;;28.61;39.64;100494.75;5031399;28;20913;-64
2022/07/20 04:55:45;;;;;;;6.13;5.10;;;27.20;59.10;;;28.90;39.02;100496.53;5030861;28;20715;-66
2022/07/20 04:58:12;;;;;;;4.53;4.03;;;27.40;58.40;;;29.24;37.46;100505.66;5031631;28;20668;-66
2022/07/20 05:00:39;;;;;;;8.53;4.77;;;27.80;56.60;;;29.55;36.17;100507.16;5029904;28;20632;-65
2022/07/20 05:03:05;;;;;;;6.00;4.30;;;28.10;55.50;;;29.85;35.35;100505.97;5025340;28;20663;-66
2022/07/20 05:05:33;;;;;;;6.57;4.17;;;28.30;54.20;;;30.18;34.37;100512.47;5031742;28;21196;-68
2022/07/20 05:08:01;;;;;;;11.30;5.80;;;28.60;53.90;;;30.45;34.57;100519.72;5032478;28;20978;-68
2022/07/20 05:10:29;;;;;;;4.90;4.40;;;28.80;54.20;;;30.68;33.78;100513.41;5031546;28;20648;-68
2022/07/20 05:12:56;;;;;;;6.60;4.47;;;28.90;53.50;;;30.86;33.52;100515.09;5031768;28;20714;-67
2022/07/20 05:15:23;;;;;;;12.87;4.83;;;29.10;53.20;;;30.96;33.43;100524.13;5030101;28;20728;-67
2022/07/20 05:17:50;;;;;;;8.50;5.00;;;29.20;53.10;;;30.74;33.71;100527.75;5031707;28;20731;-66
2022/07/20 05:20:18;;;;;;;7.13;4.63;;;29.10;52.80;;;30.32;34.21;100530.81;5030240;28;20655;-65
2022/07/20 05:22:45;;;;;;;7.40;4.50;;;28.90;52.90;;;30.11;33.90;100538.72;5012125;28;20665;-68
2022/07/20 05:25:13;;;;;;;5.47;4.20;;;28.80;52.90;;;29.91;34.64;100536.44;5010822;28;20621;-66
2022/07/20 05:27:40;;;;;;;6.73;4.33;;;28.60;53.30;;;29.85;34.42;100535.53;5029427;28;20636;-66
2022/07/20 05:30:08;;;;;;;11.30;4.07;;;28.50;53.70;;;30.13;34.17;100537.44;5030078;28;20645;-67
2022/07/20 05:32:35;;;;;;;7.10;4.50;;;28.60;53.70;;;30.55;34.02;100543.34;5031023;28;20637;-66
2022/07/20 05:35:05;;;;;;;5.97;4.67;;;28.80;53.00;;;31.01;32.99;100536.84;5029679;28;21195;-65
2022/07/20 05:37:32;;;;;;;5.60;4.30;;;29.20;52.60;;;31.44;32.36;100534.28;5031860;28;20682;-65
2022/07/20 05:39:59;;;;;;;7.53;4.70;;;29.60;52.20;;;31.82;31.88;100531.53;5031055;28;20751;-67
2022/07/20 05:42:26;;;;;;;6.30;4.57;;;29.90;51.80;;;32.13;31.64;100533.56;5029888;28;20668;-66
2022/07/20 05:44:53;;;;;;;6.40;4.50;;;30.20;52.00;;;32.29;31.06;100539.09;5013481;28;20713;-71
2022/07/20 05:47:22;;;;;;;5.57;4.83;;;30.40;51.00;;;32.61;30.86;100553.50;5031606;28;20720;-69
2022/07/20 05:49:49;;;;;;;7.50;4.53;;;30.60;50.70;;;32.87;29.97;100544.53;5055199;22;20698;-68
2022/07/20 05:52:17;;;;;;;5.57;4.67;;;30.90;50.30;;;33.10;29.27;100538.81;5032059;28;20733;-68
2022/07/20 05:54:44;;;;;;;6.27;4.37;;;31.20;49.00;;;33.20;28.75;100546.19;5052056;28;20616;-69
2022/07/20 05:57:11;;;;;;;5.10;4.53;;;31.30;48.60;;;33.63;28.71;100547.81;5050597;28;21167;-68
2022/07/20 05:59:40;;;;;;;7.20;4.63;;;31.60;48.60;;;33.79;27.68;100552.19;5052228;28;21310;-72
2022/07/20 06:02:08;;;;;;;5.00;3.90;;;31.80;47.70;;;34.08;27.08;100548.81;5036137;28;20657;-70
2022/07/20 06:04:35;;;;;;;9.83;4.00;;;32.10;47.20;;;34.46;27.17;100558.38;5030832;28;21197;-68
2022/07/20 06:07:02;;;;;;;5.03;3.70;;;32.30;47.10;;;35.04;25.90;100554.38;5039888;28;21003;-69
2022/07/20 06:09:29;;;;;;;5.20;3.67;;;32.70;47.20;;;35.40;25.68;100563.25;5044088;28;20674;-72
2022/07/20 06:11:57;;;;;;;4.30;3.37;;;33.00;46.30;;;35.41;25.49;100560.28;5050827;28;20584;-70
2022/07/20 06:14:24;;;;;;;6.47;3.57;;;33.10;45.90;;;35.50;25.56;100564.06;5042958;28;21020;-69
2022/07/20 06:16:51;;;;;;;9.40;3.80;;;33.30;45.90;;;35.82;25.22;100561.00;5030617;28;20719;-71
2022/07/20 06:19:18;;;;;;;5.47;3.67;;;33.60;46.00;;;36.14;25.02;100561.38;5030526;28;20652;-69
2022/07/20 06:21:45;;;;;;;10.50;4.17;;;33.80;45.80;;;37.02;24.31;100566.78;5038359;28;20675;-71
2022/07/20 06:24:14;;;;;;;6.07;4.30;;;34.20;45.60;;;37.72;23.49;100573.41;5029447;28;20728;-69
2022/07/20 06:26:45;;;;;;;7.50;3.70;;;34.60;45.40;;;38.13;23.12;100566.38;5039267;28;20689;-69
2022/07/20 06:29:14;;;;;;;5.07;4.13;;;34.90;44.80;;;38.41;22.43;100565.44;5038082;28;20752;-69
2022/07/20 06:31:40;;;;;;;8.27;3.53;;;35.20;44.70;;;38.66;22.95;100572.41;5030388;28;20625;-69
2022/07/20 06:34:27;;;;;;;6.33;3.90;;;35.40;44.20;;;39.01;22.02;100571.88;5030663;28;20603;-69
2022/07/20 06:36:54;;;;;;;4.43;3.90;;;35.70;43.90;;;40.03;20.89;100566.91;5029987;28;21288;-69
2022/07/20 06:39:21;;;;;;;9.87;3.87;;;36.00;43.70;;;40.71;20.15;100572.16;5031770;28;20740;-69
2022/07/20 06:41:48;;;;;;;4.40;3.67;;;36.50;43.20;;;41.35;19.72;100568.06;5037522;28;21231;-70
2022/07/20 06:44:15;;;;;;;4.53;4.13;;;36.90;42.80;;;42.09;19.14;100573.63;5050059;28;20630;-69
2022/07/20 06:46:42;;;;;;;6.03;4.20;;;37.40;43.20;;;42.88;18.24;100576.88;5046181;28;20960;-69
2022/07/20 06:49:09;;;;;;;6.03;3.70;;;37.90;41.90;;;43.89;17.42;100580.34;5044108;28;20664;-67
2022/07/20 06:51:36;;;;;;;7.27;4.30;;;38.40;41.70;;;44.39;16.75;100583.09;5047023;28;20708;-69
2022/07/20 06:54:03;;;;;;;8.60;4.20;;;38.80;41.60;;;45.01;16.39;100585.78;5050433;28;20678;-69
2022/07/20 06:56:54;;;;;;;5.80;4.17;;;39.30;41.10;;;45.92;16.40;100584.50;5044372;28;20636;-69
2022/07/20 06:59:24;;;;;;;4.43;3.97;;;40.00;40.70;;;46.22;15.84;100577.53;5027844;28;21111;-69
2022/07/20 07:02:17;;;;;;;4.87;3.67;;;40.40;40.20;;;46.46;15.11;100577.47;4954870;28;21063;-69
2022/07/20 07:04:49;;;;;;;9.53;3.90;;;40.60;39.70;;;46.95;15.38;100580.00;4966268;28;20742;-69
2022/07/20 07:07:16;;;;;;;4.60;3.90;;;41.00;39.40;;;47.92;14.41;100582.88;4945431;28;20623;-70
2022/07/20 07:09:43;;;;;;;9.03;4.87;;;41.50;39.30;;;48.67;13.77;100586.03;4969182;28;20631;-69
2022/07/20 07:12:11;;;;;;;4.50;3.77;;;42.00;39.00;;;49.30;13.73;100584.47;4969037;28;20620;-69
2022/07/20 07:14:38;;;;;;;5.27;3.87;;;42.50;38.60;;;49.92;13.01;100585.84;4970473;28;21013;-69
2022/07/20 07:17:05;;;;;;;6.40;3.67;;;43.00;38.20;;;50.23;12.93;100590.22;4972119;28;21123;-69
2022/07/20 07:19:32;;;;;;;5.17;3.60;;;43.40;38.00;;;50.51;12.16;100585.03;4976026;28;20643;-69
2022/07/20 07:21:59;;;;;;;8.70;4.80;;;43.50;37.60;;;50.90;11.87;100572.38;4984334;28;21245;-70
2022/07/20 07:24:26;;;;;;;4.53;4.13;;;43.60;37.60;;;50.95;12.11;100572.03;4971576;28;20610;-68
2022/07/20 07:26:53;;;;;;;4.40;4.10;;;43.70;37.50;;;50.38;12.74;100583.66;4987602;28;20661;-69
2022/07/20 07:29:24;;;;;;;14.60;4.80;;;43.60;37.60;;;50.08;13.10;100594.78;4987823;28;20728;-69
2022/07/20 07:31:52;;;;;;;9.93;4.33;;;43.60;37.40;;;50.38;13.09;100589.22;4981219;28;20635;-69
2022/07/20 07:34:19;;;;;;;4.07;3.77;;;43.80;37.50;;;49.48;12.98;100571.69;5042845;28;20638;-69
2022/07/20 07:36:46;;;;;;;3.47;3.20;;;43.50;36.90;;;46.63;14.82;100576.34;5041770;28;21094;-69
2022/07/20 07:39:13;;;;;;;4.30;3.90;;;42.40;37.00;;;46.19;15.60;100566.41;5036499;28;20750;-70
2022/07/20 07:41:40;;;;;;;3.97;3.67;;;41.30;37.90;;;44.93;16.11;100561.91;5030159;28;21030;-69
2022/07/20 07:44:07;;;;;;;15.93;3.63;;;40.70;38.10;;;42.66;17.84;100564.13;5033610;28;20636;-69
2022/07/20 07:46:35;;;;;;;4.63;3.47;;;39.30;39.00;;;42.32;18.47;100556.72;5034376;28;20616;-69
2022/07/20 07:49:03;;;;;;;5.97;3.90;;;38.70;39.70;;;40.46;20.20;100545.44;5038832;28;21215;-69
2022/07/20 07:51:30;;;;;;;4.47;3.80;;;37.40;40.80;;;40.59;20.09;100554.72;5063038;28;20665;-69
2022/07/20 07:53:58;;;;;;;3.63;3.43;;;37.30;41.50;;;41.23;19.71;100553.34;5044422;28;21283;-69
2022/07/20 07:56:25;;;;;;;4.23;3.87;;;37.40;41.30;;;39.27;21.96;100551.19;5051785;28;21198;-69
2022/07/20 07:58:52;;;;;;;4.23;3.93;;;36.50;41.60;;;38.30;22.71;100557.72;5046376;28;20663;-69
2022/07/20 08:01:39;;;;;;;3.90;3.60;;;35.90;42.20;;;38.58;22.67;100546.66;5038182;28;20612;-69
2022/07/20 08:04:06;;;;;;;5.10;4.57;;;35.90;42.60;;;38.30;23.31;100555.81;5043705;28;21311;-70
2022/07/20 08:06:33;;;;;;;4.20;3.70;;;35.60;42.90;;;38.76;22.39;100550.47;5045503;28;20616;-70
2022/07/20 08:09:00;;;;;;;4.53;3.50;;;35.90;43.10;;;37.41;24.12;100547.66;5054032;28;20639;-70
2022/07/20 08:11:29;;;;;;;5.17;3.97;;;35.50;43.10;;;36.97;24.61;100545.09;5050917;28;20626;-70
2022/07/20 08:13:56;;;;;;;5.53;4.27;;;35.20;43.30;;;37.88;23.67;100545.75;5053131;28;20993;-69
2022/07/20 08:16:24;;;;;;;4.60;4.17;;;35.30;43.60;;;38.59;23.12;100545.53;5048498;28;20632;-69
2022/07/20 08:18:51;;;;;;;4.93;4.40;;;35.80;43.40;;;38.24;22.75;100553.41;5046729;28;20667;-70
2022/07/20 08:21:18;;;;;;;4.60;4.10;;;35.90;42.70;;;38.48;22.84;100556.91;5047993;28;20677;-69
2022/07/20 08:23:45;;;;;;;5.07;4.57;;;36.10;42.70;;;38.30;23.34;100550.34;5050841;28;20667;-70
2022/07/20 08:26:13;;;;;;;5.70;4.30;;;35.90;43.10;;;38.75;22.59;100559.75;5054316;28;21271;-67
2022/07/20 08:28:40;;;;;;;4.40;4.00;;;36.20;43.70;;;39.09;22.58;100556.69;5053064;28;20778;-69
2022/07/20 08:31:07;;;;;;;7.30;4.03;;;36.50;42.90;;;39.33;22.58;100560.94;5054043;28;20715;-70
2022/07/20 08:33:34;;;;;;;5.10;4.13;;;36.70;42.80;;;38.30;22.53;100554.97;5045260;28;20664;-70
2022/07/20 08:36:01;;;;;;;6.87;4.33;;;36.30;42.30;;;37.39;23.46;100558.84;5042658;28;20639;-69
2022/07/20 08:38:28;;;;;;;6.67;4.83;;;35.80;42.50;;;38.05;23.08;100570.56;5050382;28;20725;-68
2022/07/20 08:40:57;;;;;;;4.70;4.30;;;36.10;42.60;;;38.26;22.17;100573.03;5041669;28;20714;-67
2022/07/20 08:43:24;;;;;;;5.30;4.47;;;36.20;42.20;;;38.63;22.56;100582.00;5042042;28;20663;-67
2022/07/20 08:45:51;;;;;;;8.40;5.93;;;36.40;42.00;;;38.21;22.53;100584.78;5063122;28;21006;-70
2022/07/20 08:48:19;;;;;;;8.43;4.57;;;36.20;41.60;;;37.48;22.87;100576.16;5040597;28;20601;-70
2022/07/20 08:50:47;;;;;;;9.30;4.87;;;35.70;41.90;;;37.21;23.17;100573.94;5044796;28;20711;-70
2022/07/20 08:53:17;;;;;;;6.10;5.50;;;35.70;42.70;;;37.45;23.08;100568.56;5046899;28;21225;-70
2022/07/20 08:55:45;;;;;;;6.60;4.93;;;35.50;42.40;;;37.29;23.51;100573.31;5042787;28;20632;-70
2022/07/20 08:58:12;;;;;;;11.10;5.43;;;35.50;43.20;;;36.80;23.96;100577.31;5033587;28;20630;-71
2022/07/20 09:00:39;;;;;;;5.57;4.67;;;35.30;42.40;;;36.83;24.00;100582.16;5050987;28;20646;-72
2022/07/20 09:03:08;;;;;;;5.50;5.00;;;35.20;42.80;;;37.13;23.27;100576.47;5058736;28;20655;-71
2022/07/20 09:05:38;;;;;;;5.07;4.67;;;35.30;42.50;;;36.69;23.78;100586.63;5051702;28;20624;-69
2022/07/20 09:08:13;;;;;;;5.50;5.00;;;35.30;42.20;;;37.36;23.38;100589.34;5067770;28;21181;-72
2022/07/20 09:10:46;;;;;;;4.77;4.37;;;35.30;42.40;;;37.01;23.28;100595.09;5052450;28;20670;-71
2022/07/20 09:13:18;;;;;;;7.87;5.20;;;35.40;42.30;;;36.96;23.85;100595.13;5050567;28;21193;-71
2022/07/20 09:15:53;;;;;;;5.50;5.00;;;35.30;42.60;;;37.25;23.29;100595.94;5052208;28;20711;-71
2022/07/20 09:18:30;;;;;;;5.13;4.73;;;35.40;42.70;;;37.51;23.11;100594.63;5050785;28;20678;-68
2022/07/20 09:21:00;;;;;;;5.80;5.30;;;35.60;42.40;;;36.89;24.18;100597.34;5052342;28;20647;-72
2022/07/20 09:23:52;;;;;;;8.73;5.90;;;35.30;42.80;;;36.71;24.34;100587.16;5049624;28;20747;-72
2022/07/20 09:26:20;;;;;;;6.03;4.70;;;35.40;43.00;;;36.90;24.71;100582.69;5043768;28;20728;-73
2022/07/20 09:28:58;;;;;;;11.87;6.43;;;35.30;43.30;;;36.92;24.40;100589.47;5031048;28;20656;-71
2022/07/20 09:31:37;;;;;;;5.03;4.03;;;35.30;43.50;;;36.71;24.67;100589.88;5031942;28;20616;-72
2022/07/20 09:34:13;;;;;;;6.40;5.43;;;35.30;43.30;;;36.67;24.82;100584.19;5032070;28;21008;-72
2022/07/20 09:36:44;;;;;;;8.37;5.40;;;35.10;43.50;;;36.90;24.55;100582.69;5051121;28;20639;-72
2022/07/20 09:39:20;;;;;;;4.87;4.37;;;35.30;43.60;;;37.23;24.60;100587.25;5051871;28;20644;-72
2022/07/20 09:41:58;;;;;;;3.30;3.00;;;35.50;43.60;;;36.11;25.58;100580.16;5030434;28;20639;-72
2022/07/20 09:44:29;;;;;;;5.90;5.33;;;35.10;43.80;;;36.65;25.52;100582.84;5030018;28;20619;-71
2022/07/20 09:46:57;;;;;;;5.40;4.90;;;35.10;44.10;;;37.31;24.56;100578.50;5033138;28;20639;-71
2022/07/20 09:49:33;;;;;;;5.97;5.00;;;35.40;44.00;;;37.49;24.33;100580.50;5051482;28;21015;-72
2022/07/20 09:52:02;;;;;;;6.17;5.47;;;35.70;43.50;;;37.88;23.68;100575.72;5049457;28;20638;-71
2022/07/20 09:54:49;;;;;;;5.60;5.10;;;35.90;43.50;;;37.97;23.35;100576.66;5051023;28;20989;-72
2022/07/20 09:57:18;;;;;;;6.53;5.90;;;36.20;42.90;;;37.93;23.41;100581.06;5050705;28;20632;-69
2022/07/20 09:59:51;;;;;;;6.33;5.67;;;36.10;42.80;;;37.92;23.78;100582.19;5050176;28;20790;-72
2022/07/20 10:02:20;;;;;;;7.00;6.30;;;36.20;43.00;;;36.94;24.41;100579.09;5043498;28;20641;-72
2022/07/20 10:04:49;;;;;;;7.10;6.27;;;35.60;43.30;;;37.39;24.66;100572.44;5044280;28;21191;-72
2022/07/20 10:07:18;;;;;;;7.37;6.17;;;35.80;43.40;;;37.48;24.39;100567.19;5050367;28;21433;-71
2022/07/20 10:09:45;;;;;;;10.00;6.50;;;35.80;43.30;;;37.71;24.18;100564.44;5066263;28;20632;-72
2022/07/20 10:12:13;;;;;;;7.43;5.73;;;36.00;43.30;;;37.88;24.18;100569.44;5052131;28;20626;-71
2022/07/20 10:14:44;;;;;;;12.27;7.93;;;36.10;43.20;;;38.14;23.58;100573.47;5048938;28;20742;-71
2022/07/20 10:17:12;;;;;;;10.27;6.30;;;36.30;43.00;;;38.45;23.14;100566.47;5034540;28;20634;-71
2022/07/20 10:19:48;;;;;;;13.27;7.47;;;36.50;42.90;;;38.62;23.69;100561.31;5048226;28;20636;-71
2022/07/20 10:22:16;;;;;;;7.97;7.17;;;36.70;43.30;;;38.56;22.83;100567.13;5032829;28;20616;-71